メインページ
METAR-TAF:

METAR-TAF

空港 :

Durango-La Plata County Airport

デュランゴ, コロラド州, アメリカ合衆国

緯度: 37-08-35N, 経度: 107-45-35W, 海抜: 2038m

現時点の気象観測

当レポートは47分前の23:53(UTC)に作成
南東の風 9kt
気温 6°C
湿度 70%
気圧 1008 hPa
視程: 16.1km
高度8000ftの千切れ雲あり

METAR: KDRO 202353Z AUTO 14009KT 10SM BKN080 06/01 A2977 RMK AO2 LTG DSNT S AND SW SLP068 60007 T00560006 10056 20006 58001

時間: 18:40 (00:40 UTC)

予報

当レポートは1時間20分前の23:20(UTC)に作成
予報は21日の 00時(UTC)から 21日の 24時(UTC)まで有効
の風 8kt
視程: 10km
高度6000ftの雲は散在している, 積乱雲.
高度8000ftの千切れ雲あり
近辺で激しい雷雨
21日の 00時(UTC)から 21日の 04時(UTC)まで一時的に
視程: 4.8km
高度5000ftの千切れ雲あり, 積乱雲.
激しい雷雨, 小雨, 雪
21日の 0400時(UTC)から
変向風 4kt
視程: 9.7km
高度3000ftの雲は散在している
高度8000ftの曇り
弱いにわか雨, 雪, 靄
21日の 0700時(UTC)から
西/南西の風 5kt
視程: 10km
高度2000ftの雲は散在している
高度8000ftの曇り
近辺でにわか雨
21日の 1100時(UTC)から
西/南西の風 8kt
視程: 10km
高度2300ftの雲は散在している
高度8000ftの千切れ雲あり

TAF: KDRO 202320Z 2100/2124 17008KT P6SM VCTS SCT060CB BKN080 TEMPO 2100/2104 3SM -TSRASN BKN050CB FM210400 VRB04KT 6SM -SHRASN BR SCT030 OVC080 FM210700 25005KT P6SM VCSH SCT020 OVC080 FM211100 25008KT P6SM SCT023 BKN080

4,000以上の空港の気象観測と天気予報(METAR報とTAF報)

利用可能な観測所は地図上に黄色い丸と赤い丸で示す。

丸の上にカーソルを重ねると観測所名を参照できる。

次にクリックすると気象観測と天気予報を参照できる。

マップの切り替え:黒色「×」印の緑ボタンをクリックして拡大、「-」印の緑ボタンをクリックして縮小、緑色の三角印をクリックして隣りの地図に切り替え


METAR-TAF: